Time;durP1;ratioP1;P1;durP2;ratioP2;P2;SDS_P1;SDS_P2;PMS_P1;PMS_P2;Temp;Humidity;BMP_temperature;BMP_pressure;BME280_temperature;BME280_humidity;BME280_pressure;Samples;Min_cycle;Max_cycle;Signal;HPM_P1;HPM_P2
2021/06/21 00:00:22;;;;;;;5.00;1.80;;;20.70;85.40;;;;;;10124332;28;20274;-60
2021/06/21 00:05:14;;;;;;;7.45;2.05;;;20.80;85.20;;;;;;10121131;28;20620;-54
2021/06/21 00:10:07;;;;;;;3.60;1.35;;;20.60;85.40;;;;;;10122921;28;20029;-59
2021/06/21 00:14:58;;;;;;;4.88;1.98;;;20.70;85.10;;;;;;10122010;28;20163;-55
2021/06/21 00:19:49;;;;;;;4.82;1.50;;;20.60;85.50;;;;;;10128244;28;20032;-59
2021/06/21 00:24:40;;;;;;;5.70;1.30;;;20.80;85.10;;;;;;10122144;28;20028;-57
2021/06/21 00:29:30;;;;;;;4.30;1.77;;;20.80;84.90;;;;;;10120380;28;20059;-60
2021/06/21 00:34:21;;;;;;;5.07;1.58;;;20.80;84.90;;;;;;10122132;28;20503;-53
2021/06/21 00:39:12;;;;;;;8.68;1.58;;;20.80;84.80;;;;;;10124648;28;20126;-64
2021/06/21 00:44:03;;;;;;;6.53;1.73;;;20.90;84.50;;;;;;10128437;28;20115;-59
2021/06/21 00:48:54;;;;;;;4.28;1.75;;;20.80;84.50;;;;;;10136675;28;20036;-59
2021/06/21 00:53:46;;;;;;;3.70;2.35;;;20.60;85.00;;;;;;10133182;28;20060;-56
2021/06/21 00:58:37;;;;;;;8.98;1.77;;;20.60;84.40;;;;;;10129610;28;20029;-59
2021/06/21 01:03:28;;;;;;;3.33;1.40;;;20.60;84.10;;;;;;10129351;28;20020;-63
2021/06/21 01:08:19;;;;;;;3.25;1.35;;;20.60;84.10;;;;;;10126596;28;20059;-55
2021/06/21 01:13:24;;;;;;;4.47;1.50;;;20.60;84.10;;;;;;10128264;28;20364;-54
2021/06/21 01:18:29;;;;;;;4.38;2.72;;;20.60;83.60;;;;;;10129932;28;20081;-68
2021/06/21 01:23:35;;;;;;;5.28;1.50;;;20.60;83.90;;;;;;10128052;28;20660;-58
2021/06/21 01:29:04;;;;;;;3.15;1.58;;;20.50;83.60;;;;;;10126733;28;20040;-58
2021/06/21 01:33:56;;;;;;;6.13;2.17;;;20.40;84.00;;;;;;10127014;28;20033;-60
2021/06/21 01:38:54;;;;;;;6.00;1.60;;;20.60;83.60;;;;;;10125980;28;20115;-59
2021/06/21 01:43:46;;;;;;;5.93;1.77;;;20.60;83.10;;;;;;10124329;28;20375;-52
2021/06/21 01:48:42;;;;;;;6.53;1.58;;;20.60;83.40;;;;;;10126546;28;20036;-52
2021/06/21 01:53:36;;;;;;;4.35;1.58;;;20.50;83.10;;;;;;10117339;28;20024;-54
2021/06/21 01:58:29;;;;;;;9.32;2.80;;;20.60;83.20;;;;;;10125386;28;20024;-67
2021/06/21 02:03:22;;;;;;;2.50;1.60;;;20.60;83.10;;;;;;10125112;28;20040;-64
2021/06/21 02:08:14;;;;;;;5.45;1.52;;;20.50;82.80;;;;;;10123430;28;20473;-53
2021/06/21 02:13:07;;;;;;;8.00;2.20;;;20.50;82.70;;;;;;10127090;28;20028;-55
2021/06/21 02:17:59;;;;;;;5.50;1.73;;;20.30;83.40;;;;;;10122038;28;20032;-53
2021/06/21 02:22:50;;;;;;;8.20;1.90;;;20.30;83.40;;;;;;10124036;28;20024;-53
2021/06/21 02:27:43;;;;;;;4.90;1.83;;;20.30;83.10;;;;;;10125930;28;20048;-59
2021/06/21 02:32:34;;;;;;;3.33;1.25;;;20.30;83.00;;;;;;10121014;28;20390;-56
2021/06/21 02:37:25;;;;;;;6.43;2.45;;;20.30;82.80;;;;;;10124832;28;20293;-58
2021/06/21 02:42:16;;;;;;;4.90;2.10;;;20.30;82.80;;;;;;10123489;28;20050;-55
2021/06/21 02:47:07;;;;;;;5.30;2.83;;;20.40;82.80;;;;;;10122434;28;20036;-55
2021/06/21 02:52:38;;;;;;;6.22;2.17;;;20.40;82.70;;;;;;10125619;28;20033;-52
2021/06/21 02:57:32;;;;;;;7.78;1.73;;;20.40;82.30;;;;;;10122176;28;20029;-54
2021/06/21 03:02:24;;;;;;;5.10;2.08;;;20.40;82.10;;;;;;10125041;28;20029;-53
2021/06/21 03:07:19;;;;;;;5.63;1.98;;;20.40;82.10;;;;;;10119350;28;20086;-54
2021/06/21 03:12:11;;;;;;;3.30;1.42;;;20.30;82.30;;;;;;10122355;28;20047;-52
2021/06/21 03:17:06;;;;;;;6.03;2.33;;;20.30;82.40;;;;;;10130115;28;20035;-53
2021/06/21 03:21:57;;;;;;;4.80;2.00;;;20.20;82.60;;;;;;10121011;28;20032;-53
2021/06/21 03:26:48;;;;;;;4.97;2.17;;;20.20;82.60;;;;;;10123917;28;20032;-54
2021/06/21 03:31:40;;;;;;;5.63;1.75;;;20.20;82.40;;;;;;10121337;28;20159;-58
2021/06/21 03:36:31;;;;;;;7.47;2.38;;;20.20;82.30;;;;;;10123828;28;20013;-63
2021/06/21 03:41:21;;;;;;;5.28;1.42;;;20.20;82.30;;;;;;10122792;28;20701;-54
2021/06/21 03:46:12;;;;;;;5.22;1.60;;;20.20;82.30;;;;;;10120543;28;20467;-58
2021/06/21 03:51:04;;;;;;;6.30;2.50;;;20.10;82.50;;;;;;10126231;28;20067;-60
2021/06/21 03:55:55;;;;;;;9.32;2.58;;;20.20;82.30;;;;;;10121807;28;20033;-55
2021/06/21 04:00:46;;;;;;;7.65;1.92;;;20.30;82.10;;;;;;10122714;28;20540;-56
2021/06/21 04:05:39;;;;;;;5.32;1.90;;;20.20;82.10;;;;;;10122998;28;20048;-56
2021/06/21 04:10:30;;;;;;;8.57;1.60;;;20.30;82.20;;;;;;10117267;28;20032;-58
2021/06/21 04:15:28;;;;;;;10.68;1.80;;;20.20;82.20;;;;;;10121942;28;20039;-56
2021/06/21 04:20:19;;;;;;;4.10;2.03;;;20.30;82.10;;;;;;10133009;28;20032;-57
2021/06/21 04:25:13;;;;;;;7.03;2.08;;;20.30;81.70;;;;;;10127589;28;20448;-56
2021/06/21 04:30:08;;;;;;;5.60;2.38;;;20.20;81.90;;;;;;10129769;28;20044;-56
2021/06/21 04:34:59;;;;;;;5.75;2.10;;;20.30;81.90;;;;;;10127111;28;20029;-55
2021/06/21 04:39:50;;;;;;;4.10;1.58;;;20.20;82.00;;;;;;10128800;28;20067;-52
2021/06/21 04:44:40;;;;;;;6.28;2.10;;;20.30;82.00;;;;;;10126779;28;20632;-60
2021/06/21 04:49:31;;;;;;;4.28;1.30;;;20.30;81.70;;;;;;10126613;28;20072;-52
2021/06/21 04:54:22;;;;;;;5.45;2.10;;;20.30;81.90;;;;;;10128864;28;20078;-55
2021/06/21 04:59:13;;;;;;;5.88;1.75;;;20.50;81.80;;;;;;10128457;28;20035;-55
2021/06/21 05:04:05;;;;;;;2.13;1.35;;;20.40;81.70;;;;;;10127111;28;20115;-60
2021/06/21 05:08:56;;;;;;;6.85;2.55;;;20.30;81.80;;;;;;10127695;28;20147;-64
2021/06/21 05:13:47;;;;;;;4.50;1.30;;;20.40;81.80;;;;;;10126941;28;20035;-65
2021/06/21 05:18:38;;;;;;;7.05;2.33;;;20.40;81.80;;;;;;10135473;28;20027;-67
2021/06/21 05:23:28;;;;;;;4.20;1.95;;;20.60;81.30;;;;;;10128026;28;20537;-56
2021/06/21 05:28:19;;;;;;;4.60;1.48;;;20.80;81.00;;;;;;10126746;28;20040;-67
2021/06/21 05:33:10;;;;;;;8.48;1.63;;;20.70;81.10;;;;;;10128886;28;20051;-57
2021/06/21 05:38:01;;;;;;;4.13;1.35;;;20.80;80.70;;;;;;10125884;28;20028;-61
2021/06/21 05:42:51;;;;;;;3.45;1.50;;;21.00;80.40;;;;;;10126080;28;20024;-66
2021/06/21 05:47:43;;;;;;;2.55;1.65;;;21.00;80.60;;;;;;10127044;28;20036;-68
2021/06/21 05:52:33;;;;;;;4.53;1.80;;;21.10;80.50;;;;;;10126629;28;20509;-60
2021/06/21 05:57:28;;;;;;;3.80;1.40;;;21.00;80.50;;;;;;10127470;28;20028;-60
2021/06/21 06:02:19;;;;;;;1.95;1.10;;;21.30;80.20;;;;;;10126591;28;20392;-56
2021/06/21 06:07:10;;;;;;;3.97;1.98;;;21.30;79.90;;;;;;10124815;28;20044;-57
2021/06/21 06:12:01;;;;;;;3.13;1.45;;;21.50;79.80;;;;;;10126893;28;20032;-66
2021/06/21 06:16:54;;;;;;;4.60;1.67;;;21.50;79.70;;;;;;10126293;28;20041;-64
2021/06/21 06:21:46;;;;;;;5.43;2.63;;;21.50;79.40;;;;;;10125854;28;20102;-56
2021/06/21 06:26:39;;;;;;;5.05;1.45;;;21.50;79.40;;;;;;10126260;28;20021;-61
2021/06/21 06:31:30;;;;;;;7.43;3.55;;;21.50;78.60;;;;;;10122493;28;20039;-57
2021/06/21 06:36:21;;;;;;;4.53;1.40;;;21.50;78.70;;;;;;10125498;28;20199;-57
2021/06/21 06:41:11;;;;;;;4.35;1.42;;;21.50;78.60;;;;;;10124507;28;20060;-61
2021/06/21 06:46:02;;;;;;;4.53;1.17;;;21.40;78.80;;;;;;10122869;28;20663;-60
2021/06/21 06:50:53;;;;;;;4.70;1.65;;;21.50;78.70;;;;;;10124878;28;20044;-59
2021/06/21 07:00:53;;;;;;;5.20;2.35;;;21.60;78.30;;;;;;10127341;28;20101;-56
2021/06/21 07:05:44;;;;;;;4.07;1.13;;;21.70;78.20;;;;;;10126913;28;20041;-57
2021/06/21 07:10:35;;;;;;;3.08;1.13;;;21.90;77.50;;;;;;10119606;28;20025;-60
2021/06/21 07:15:27;;;;;;;4.18;1.40;;;22.00;76.90;;;;;;10123104;28;20055;-63
2021/06/21 07:20:18;;;;;;;3.30;1.33;;;22.00;76.80;;;;;;10122728;28;20021;-54
2021/06/21 07:25:10;;;;;;;3.83;1.30;;;22.20;76.40;;;;;;10121891;28;20024;-60
2021/06/21 07:30:01;;;;;;;3.97;1.42;;;22.30;76.00;;;;;;10124126;28;20265;-63
2021/06/21 07:34:52;;;;;;;5.80;1.75;;;22.40;75.50;;;;;;10121879;28;20164;-62
2021/06/21 07:39:43;;;;;;;4.05;1.25;;;22.50;75.30;;;;;;10122405;28;20386;-53
2021/06/21 07:44:35;;;;;;;3.65;1.50;;;22.80;74.60;;;;;;10122343;28;20023;-55
2021/06/21 07:49:26;;;;;;;6.75;1.80;;;22.90;73.90;;;;;;10119354;28;20032;-55
2021/06/21 07:54:19;;;;;;;3.55;1.20;;;23.00;73.30;;;;;;10129421;28;20052;-55
2021/06/21 07:59:10;;;;;;;3.47;1.42;;;23.00;72.80;;;;;;10130108;28;20169;-60
2021/06/21 08:04:00;;;;;;;3.45;1.25;;;23.10;72.30;;;;;;10132635;28;20032;-59
2021/06/21 08:08:51;;;;;;;4.55;1.77;;;23.20;71.80;;;;;;10130837;28;20128;-57
2021/06/21 08:13:42;;;;;;;3.58;1.35;;;23.30;71.10;;;;;;10140644;28;20060;-58
2021/06/21 08:18:33;;;;;;;2.63;1.25;;;23.40;70.90;;;;;;10139072;28;20055;-54
2021/06/21 08:23:23;;;;;;;3.42;1.50;;;23.50;70.10;;;;;;10130790;28;20036;-63
2021/06/21 08:28:15;;;;;;;2.33;1.42;;;23.80;69.50;;;;;;10126850;28;20060;-63
2021/06/21 08:33:06;;;;;;;2.08;1.20;;;23.90;68.60;;;;;;10131286;28;20036;-57
2021/06/21 08:37:57;;;;;;;1.95;1.02;;;24.00;68.30;;;;;;10127540;28;20028;-58
2021/06/21 08:42:49;;;;;;;3.75;1.38;;;24.10;67.90;;;;;;10125916;28;20016;-52
2021/06/21 08:47:40;;;;;;;3.60;1.38;;;24.20;67.60;;;;;;10129983;28;20025;-56
2021/06/21 08:52:31;;;;;;;2.17;1.38;;;24.30;67.10;;;;;;10127480;28;20029;-52
2021/06/21 08:57:21;;;;;;;1.73;1.00;;;24.50;66.40;;;;;;10128959;28;20029;-59
2021/06/21 09:02:15;;;;;;;3.15;0.95;;;24.70;65.40;;;;;;10126162;28;20024;-57
2021/06/21 09:07:19;;;;;;;4.00;1.53;;;24.60;65.40;;;;;;10128227;28;20052;-56
2021/06/21 09:12:11;;;;;;;4.67;1.20;;;24.70;64.40;;;;;;10128105;28;20060;-55
2021/06/21 09:17:10;;;;;;;1.25;1.13;;;24.50;64.90;;;;;;10128098;28;20067;-58
2021/06/21 09:22:00;;;;;;;1.33;1.13;;;24.30;64.20;;;;;;10126462;28;20100;-51
2021/06/21 09:27:02;;;;;;;4.03;2.50;;;24.50;63.90;;;;;;10125616;28;20467;-57
2021/06/21 09:31:53;;;;;;;4.30;2.42;;;24.70;62.30;;;;;;10131531;28;20491;-57
2021/06/21 09:36:44;;;;;;;3.78;1.20;;;24.50;63.50;;;;;;10121710;28;20313;-55
2021/06/21 09:41:35;;;;;;;3.17;1.58;;;25.00;62.50;;;;;;10128432;28;20588;-55
2021/06/21 09:46:26;;;;;;;1.92;0.90;;;25.40;61.70;;;;;;10124900;28;20047;-55
2021/06/21 09:51:35;;;;;;;7.35;2.00;;;25.80;61.20;;;;;;10127350;28;20317;-53
2021/06/21 09:56:30;;;;;;;1.65;1.15;;;25.80;60.50;;;;;;10121353;28;20021;-55
2021/06/21 10:01:29;;;;;;;3.17;1.15;;;25.60;60.50;;;;;;10127177;28;20066;-53
2021/06/21 10:06:20;;;;;;;6.55;1.40;;;25.70;60.00;;;;;;10133325;28;20419;-55
2021/06/21 10:11:30;;;;;;;2.05;1.40;;;25.50;60.40;;;;;;10123755;28;20036;-54
2021/06/21 10:16:21;;;;;;;3.20;1.75;;;25.30;59.50;;;;;;10119037;28;20040;-55
2021/06/21 10:21:12;;;;;;;4.88;1.75;;;25.50;60.20;;;;;;10120926;28;20031;-59
2021/06/21 10:26:03;;;;;;;3.92;1.20;;;25.50;59.80;;;;;;10126430;28;20400;-60
2021/06/21 10:30:55;;;;;;;1.40;1.00;;;25.30;60.00;;;;;;10122751;28;20036;-54
2021/06/21 10:35:46;;;;;;;1.48;1.02;;;25.30;59.60;;;;;;10124890;28;20379;-58
2021/06/21 10:40:53;;;;;;;4.78;2.10;;;25.40;58.90;;;;;;10124304;28;20021;-60
2021/06/21 10:45:44;;;;;;;5.40;1.20;;;25.80;58.20;;;;;;10120545;28;20279;-61
2021/06/21 10:50:49;;;;;;;3.33;1.55;;;25.90;58.20;;;;;;10126610;28;20274;-59
2021/06/21 10:55:41;;;;;;;6.18;1.48;;;26.00;57.40;;;;;;10122294;28;20028;-56
2021/06/21 11:00:34;;;;;;;2.60;1.20;;;26.00;57.70;;;;;;10126049;28;20056;-56
2021/06/21 11:05:38;;;;;;;2.38;1.20;;;26.00;57.40;;;;;;10116413;28;20032;-50
2021/06/21 11:10:29;;;;;;;1.52;0.93;;;26.20;56.10;;;;;;10124147;28;20583;-59
2021/06/21 11:15:20;;;;;;;3.53;1.55;;;26.30;56.50;;;;;;10124713;28;20145;-57
2021/06/21 11:20:40;;;;;;;2.47;1.70;;;26.50;55.70;;;;;;10124627;28;20017;-59
2021/06/21 11:25:47;;;;;;;2.40;1.10;;;26.90;54.70;;;;;;10124631;28;20035;-52
2021/06/21 11:30:42;;;;;;;1.65;1.05;;;27.10;54.60;;;;;;10125399;28;20025;-53
2021/06/21 11:36:03;;;;;;;6.25;1.30;;;27.30;54.60;;;;;;10124418;28;20029;-52
2021/06/21 11:41:22;;;;;;;2.25;1.20;;;27.80;53.60;;;;;;10123331;28;20100;-55
2021/06/21 11:46:44;;;;;;;2.30;1.30;;;28.20;52.90;;;;;;10120089;28;20021;-57
2021/06/21 11:51:35;;;;;;;2.90;1.80;;;28.10;53.10;;;;;;10124037;28;20517;-52
2021/06/21 11:56:26;;;;;;;2.17;1.33;;;27.60;54.00;;;;;;10120955;28;20028;-55
2021/06/21 12:01:19;;;;;;;6.30;2.92;;;27.70;53.70;;;;;;10121417;28;20052;-55
2021/06/21 12:06:18;;;;;;;2.53;1.30;;;27.80;53.80;;;;;;10122661;28;20055;-59
2021/06/21 12:11:18;;;;;;;2.47;1.73;;;27.80;53.50;;;;;;10121346;28;20048;-59
2021/06/21 12:16:15;;;;;;;2.67;1.67;;;28.30;53.50;;;;;;10123486;28;20056;-55
2021/06/21 12:21:06;;;;;;;2.05;1.42;;;28.50;53.30;;;;;;10119943;28;20082;-53
2021/06/21 12:25:56;;;;;;;3.40;1.40;;;28.70;53.10;;;;;;10123168;28;20571;-48
2021/06/21 12:30:52;;;;;;;2.08;1.50;;;28.40;53.40;;;;;;10120928;28;20047;-49
2021/06/21 12:36:28;;;;;;;2.90;1.35;;;28.20;53.40;;;;;;10122736;28;20036;-55
2021/06/21 12:41:28;;;;;;;1.38;0.93;;;28.40;52.60;;;;;;10125757;28;20036;-57
2021/06/21 12:46:21;;;;;;;2.38;1.15;;;29.10;52.00;;;;;;10129092;28;20437;-56
2021/06/21 12:51:13;;;;;;;2.67;1.50;;;29.60;51.60;;;;;;10126698;28;20041;-60
2021/06/21 12:56:04;;;;;;;6.00;2.53;;;30.60;51.10;;;;;;10136512;28;20039;-56
2021/06/21 13:00:59;;;;;;;3.10;1.40;;;30.90;50.60;;;;;;10126639;28;20043;-53
2021/06/21 13:05:52;;;;;;;2.47;1.13;;;31.60;50.20;;;;;;10126951;28;20044;-59
2021/06/21 13:10:43;;;;;;;2.83;1.40;;;32.10;48.50;;;;;;10129619;28;20056;-54
2021/06/21 13:15:42;;;;;;;4.88;1.50;;;34.10;46.80;;;;;;10128520;28;20044;-54
2021/06/21 13:20:33;;;;;;;2.55;1.20;;;35.80;44.30;;;;;;10135216;28;20403;-52
2021/06/21 13:25:26;;;;;;;;;;;36.80;43.70;;;;;;10127764;28;20035;-53
2021/06/21 13:30:27;;;;;;;4.68;1.25;;;34.00;43.50;;;;;;10126542;28;20405;-53
2021/06/21 13:35:19;;;;;;;2.70;1.45;;;32.00;46.70;;;;;;10126882;28;20111;-55
2021/06/21 13:40:14;;;;;;;3.37;1.40;;;32.00;46.30;;;;;;10126133;28;20017;-52
2021/06/21 13:45:08;;;;;;;2.15;1.80;;;31.90;45.20;;;;;;10127007;28;20048;-50
2021/06/21 13:50:08;;;;;;;3.58;1.23;;;31.60;44.50;;;;;;10123513;28;20033;-53
2021/06/21 13:54:58;;;;;;;5.22;2.08;;;34.00;41.60;;;;;;10125115;28;20098;-51
2021/06/21 13:59:50;;;;;;;1.73;1.33;;;35.90;39.90;;;;;;10125632;28;20082;-50
2021/06/21 14:04:41;;;;;;;3.08;1.35;;;35.70;39.60;;;;;;10125019;28;20552;-57
2021/06/21 14:09:32;;;;;;;2.60;1.23;;;36.50;38.90;;;;;;10127042;28;20025;-54
2021/06/21 14:14:23;;;;;;;3.95;1.50;;;37.30;37.50;;;;;;10125509;28;20039;-54
2021/06/21 14:19:13;;;;;;;3.25;1.27;;;35.40;38.70;;;;;;10126375;28;20274;-53
2021/06/21 14:24:05;;;;;;;2.85;1.27;;;35.40;38.80;;;;;;10123255;28;20023;-56
2021/06/21 14:28:55;;;;;;;3.15;1.60;;;35.70;37.90;;;;;;10124755;28;20028;-57
2021/06/21 14:33:46;;;;;;;2.45;1.50;;;35.30;38.20;;;;;;10124853;28;20070;-54
2021/06/21 14:38:38;;;;;;;3.78;2.10;;;36.50;36.70;;;;;;10124071;28;20399;-55
2021/06/21 14:43:29;;;;;;;2.80;1.60;;;36.70;36.20;;;;;;10126378;28;20043;-51
2021/06/21 14:48:20;;;;;;;3.20;1.00;;;35.30;37.30;;;;;;10123089;28;20036;-60
2021/06/21 14:53:12;;;;;;;3.30;1.30;;;34.60;38.00;;;;;;10124915;28;20037;-58
2021/06/21 14:58:07;;;;;;;1.58;1.08;;;34.30;37.90;;;;;;10122723;28;20032;-55
2021/06/21 15:02:58;;;;;;;2.42;1.55;;;33.70;38.60;;;;;;10136960;28;20174;-55
2021/06/21 15:07:51;;;;;;;2.30;1.38;;;34.10;38.30;;;;;;10124864;28;20040;-57
2021/06/21 15:12:42;;;;;;;1.55;1.40;;;35.00;37.30;;;;;;10122241;28;20441;-55
2021/06/21 15:17:33;;;;;;;1.92;1.00;;;34.80;38.40;;;;;;10125001;28;20103;-57
2021/06/21 15:22:24;;;;;;;4.43;1.60;;;34.50;38.20;;;;;;10120881;28;20027;-56
2021/06/21 15:27:15;;;;;;;1.33;1.10;;;33.70;38.90;;;;;;10124327;28;20029;-59
2021/06/21 15:32:06;;;;;;;4.07;2.10;;;33.70;39.10;;;;;;10121544;28;20043;-60
2021/06/21 15:36:57;;;;;;;2.80;1.30;;;33.30;39.00;;;;;;10121907;28;20379;-62
2021/06/21 15:41:48;;;;;;;3.80;1.60;;;32.70;39.60;;;;;;10128500;28;20055;-55
2021/06/21 15:46:38;;;;;;;2.53;1.60;;;32.10;40.20;;;;;;10124751;28;20364;-56
2021/06/21 15:51:35;;;;;;;1.75;1.40;;;31.40;40.90;;;;;;10121888;28;20040;-56
2021/06/21 15:56:26;;;;;;;2.38;1.38;;;31.10;41.10;;;;;;10118586;28;20042;-52
2021/06/21 16:01:17;;;;;;;2.67;1.63;;;30.60;42.10;;;;;;10122306;28;20032;-51
2021/06/21 16:06:08;;;;;;;2.13;1.80;;;30.60;42.10;;;;;;10120600;28;20144;-56
2021/06/21 16:10:59;;;;;;;2.35;1.48;;;30.60;42.20;;;;;;10122277;28;20144;-58
2021/06/21 16:15:51;;;;;;;2.70;1.42;;;30.80;42.10;;;;;;10130496;28;20112;-57
2021/06/21 16:20:43;;;;;;;2.75;2.00;;;30.40;42.60;;;;;;10129505;28;20427;-60
2021/06/21 16:25:35;;;;;;;5.13;1.67;;;30.30;43.00;;;;;;10131889;28;20020;-59
2021/06/21 16:30:26;;;;;;;3.58;1.40;;;30.10;43.20;;;;;;10128339;28;20068;-60
2021/06/21 16:35:19;;;;;;;1.83;1.50;;;29.70;43.50;;;;;;10129028;28;20048;-53
2021/06/21 16:40:10;;;;;;;2.25;1.70;;;29.40;43.90;;;;;;10129125;28;20383;-56
2021/06/21 16:45:01;;;;;;;2.25;1.35;;;29.20;44.10;;;;;;10123964;28;20029;-57
2021/06/21 16:49:51;;;;;;;4.00;1.38;;;29.00;44.20;;;;;;10128888;28;20040;-59
2021/06/21 16:54:42;;;;;;;2.65;1.17;;;28.80;44.20;;;;;;10124988;28;20514;-60
2021/06/21 16:59:33;;;;;;;2.60;2.40;;;28.70;44.30;;;;;;10129852;28;20559;-57
2021/06/21 17:04:24;;;;;;;1.38;1.23;;;28.50;44.70;;;;;;10129103;28;20458;-58
2021/06/21 17:09:15;;;;;;;3.08;1.52;;;28.60;44.60;;;;;;10128843;28;20061;-56
2021/06/21 17:14:06;;;;;;;3.15;2.35;;;28.50;44.60;;;;;;10127278;28;20036;-60
2021/06/21 17:18:56;;;;;;;2.50;2.00;;;28.50;44.60;;;;;;10127188;28;20035;-60
2021/06/21 17:23:48;;;;;;;2.08;1.40;;;28.60;44.60;;;;;;10127233;28;20028;-61
2021/06/21 17:28:39;;;;;;;3.30;1.23;;;28.50;45.00;;;;;;10124672;28;20052;-54
2021/06/21 17:33:30;;;;;;;2.50;1.70;;;28.50;45.10;;;;;;10128114;28;20047;-56
2021/06/21 17:38:20;;;;;;;2.95;2.25;;;28.40;45.40;;;;;;10127054;28;21173;-59
2021/06/21 17:43:11;;;;;;;3.35;1.73;;;28.30;45.70;;;;;;10127726;28;20044;-59
2021/06/21 17:48:03;;;;;;;4.05;1.92;;;28.10;46.10;;;;;;10124753;28;20048;-58
2021/06/21 17:52:54;;;;;;;5.90;2.38;;;28.10;46.20;;;;;;10123940;28;20451;-56
2021/06/21 17:57:51;;;;;;;3.83;2.65;;;28.00;46.90;;;;;;10126378;28;20467;-52
2021/06/21 18:02:45;;;;;;;2.80;2.10;;;28.00;46.50;;;;;;10122471;28;20056;-57
2021/06/21 18:07:36;;;;;;;3.88;2.38;;;28.00;46.60;;;;;;10126675;28;20531;-54
2021/06/21 18:12:27;;;;;;;5.40;3.28;;;27.90;46.80;;;;;;10124148;28;20110;-57
2021/06/21 18:17:17;;;;;;;8.23;4.10;;;27.90;47.10;;;;;;10125497;28;20036;-58
2021/06/21 18:22:12;;;;;;;9.48;5.22;;;27.90;47.40;;;;;;10123365;28;20032;-60
2021/06/21 18:27:03;;;;;;;5.97;3.33;;;27.80;47.70;;;;;;10122494;28;20442;-56
2021/06/21 18:31:53;;;;;;;36.13;24.83;;;27.70;48.00;;;;;;10122185;28;20051;-62
2021/06/21 18:36:44;;;;;;;50.33;33.10;;;27.90;48.20;;;;;;10122722;28;20052;-57
2021/06/21 18:41:35;;;;;;;10.73;7.40;;;27.90;48.20;;;;;;10125733;28;20036;-56
2021/06/21 18:46:26;;;;;;;6.30;5.10;;;27.90;48.40;;;;;;10122482;28;20031;-63
2021/06/21 18:51:17;;;;;;;5.60;3.72;;;27.80;48.60;;;;;;10124130;28;20499;-62
2021/06/21 18:56:08;;;;;;;5.03;2.67;;;27.60;48.80;;;;;;10123112;28;20032;-58
2021/06/21 19:00:59;;;;;;;2.95;2.35;;;27.60;48.90;;;;;;10120266;28;20033;-64
2021/06/21 19:05:50;;;;;;;4.47;2.42;;;27.50;49.00;;;;;;10121298;28;20337;-58
2021/06/21 19:10:42;;;;;;;4.97;3.17;;;27.50;49.00;;;;;;10119327;28;20411;-60
2021/06/21 19:15:34;;;;;;;6.40;2.58;;;27.50;49.00;;;;;;10119694;28;20036;-57
2021/06/21 19:20:24;;;;;;;4.38;2.30;;;27.40;49.00;;;;;;10123044;28;20029;-60
2021/06/21 19:25:17;;;;;;;4.57;2.45;;;27.20;49.30;;;;;;10124146;28;20139;-56
2021/06/21 19:30:13;;;;;;;3.78;1.67;;;26.90;50.00;;;;;;10122555;28;20040;-58
2021/06/21 19:35:05;;;;;;;1.15;0.70;;;26.00;52.40;;;;;;10121539;28;20197;-60
2021/06/21 19:39:55;;;;;;;1.80;0.70;;;22.20;63.10;;;;;;10122666;28;20032;-59
2021/06/21 19:44:46;;;;;;;1.65;0.50;;;19.50;73.70;;;;;;10120062;28;20073;-60
2021/06/21 19:49:38;;;;;;;0.70;0.60;;;18.20;80.20;;;;;;10127455;28;20461;-55
2021/06/21 19:54:28;;;;;;;0.35;0.30;;;17.70;81.70;;;;;;10127936;28;20430;-51
2021/06/21 19:59:19;;;;;;;1.10;0.70;;;17.40;82.90;;;;;;10128720;28;20070;-51
2021/06/21 20:04:10;;;;;;;3.38;1.20;;;17.60;82.30;;;;;;10128250;28;20035;-60
2021/06/21 20:09:01;;;;;;;1.85;1.00;;;17.90;79.70;;;;;;10125206;28;20055;-60
2021/06/21 20:13:53;;;;;;;1.63;1.15;;;18.20;79.50;;;;;;10128986;28;20036;-60
2021/06/21 20:18:44;;;;;;;8.40;1.77;;;18.90;78.00;;;;;;10129495;28;20025;-57
2021/06/21 20:23:35;;;;;;;1.52;0.70;;;19.60;75.60;;;;;;10129984;28;20020;-52
2021/06/21 20:28:26;;;;;;;3.58;1.02;;;20.00;75.00;;;;;;10129733;28;20059;-61
2021/06/21 20:33:17;;;;;;;1.77;0.75;;;20.30;74.40;;;;;;10121077;28;20055;-63
2021/06/21 20:38:11;;;;;;;2.80;0.95;;;20.70;73.70;;;;;;10122668;28;20025;-58
2021/06/21 20:43:03;;;;;;;2.85;1.10;;;20.80;74.10;;;;;;10125484;28;20032;-57
2021/06/21 20:47:54;;;;;;;5.30;1.50;;;21.00;74.10;;;;;;10120652;28;20555;-60
2021/06/21 20:52:44;;;;;;;4.82;2.13;;;21.10;74.80;;;;;;10129754;28;20055;-61
2021/06/21 20:57:40;;;;;;;2.90;1.55;;;20.80;76.00;;;;;;10129205;28;20017;-54
2021/06/21 21:02:31;;;;;;;4.72;1.70;;;20.90;77.00;;;;;;10124002;28;20048;-52
2021/06/21 21:07:21;;;;;;;5.25;1.55;;;20.80;77.30;;;;;;10125656;28;20049;-49
2021/06/21 21:12:12;;;;;;;3.28;1.60;;;20.70;78.00;;;;;;10121310;28;20318;-58
2021/06/21 21:17:03;;;;;;;2.60;1.17;;;20.70;78.30;;;;;;10114622;28;20021;-57
2021/06/21 21:21:54;;;;;;;4.50;1.15;;;20.80;78.40;;;;;;10112026;28;20705;-56
2021/06/21 21:26:45;;;;;;;4.05;0.90;;;20.60;78.80;;;;;;10125716;28;20198;-54
2021/06/21 21:31:36;;;;;;;1.88;0.98;;;20.70;79.10;;;;;;10127896;28;20028;-57
2021/06/21 21:36:26;;;;;;;1.65;1.00;;;20.60;79.40;;;;;;10125954;28;20474;-59
2021/06/21 21:41:17;;;;;;;2.22;1.10;;;20.40;80.30;;;;;;10121099;28;20517;-56
2021/06/21 21:46:08;;;;;;;2.17;1.10;;;20.40;80.30;;;;;;10125598;28;20032;-52
2021/06/21 21:50:59;;;;;;;1.67;0.90;;;20.30;80.50;;;;;;10123824;28;20020;-53
2021/06/21 21:55:50;;;;;;;2.67;1.10;;;20.00;81.10;;;;;;10118611;28;20040;-56
2021/06/21 22:00:46;;;;;;;2.60;1.00;;;20.00;81.70;;;;;;10119026;28;20050;-52
2021/06/21 22:05:38;;;;;;;2.50;1.13;;;19.90;81.90;;;;;;10119727;28;20056;-53
2021/06/21 22:10:29;;;;;;;14.82;8.45;;;19.60;82.60;;;;;;10119582;28;20139;-56
2021/06/21 22:15:20;;;;;;;8.75;6.63;;;19.60;82.70;;;;;;10124106;28;20056;-55
2021/06/21 22:20:14;;;;;;;87.93;53.83;;;19.50;83.00;;;;;;10123615;28;20056;-52
2021/06/21 22:25:06;;;;;;;4.97;2.58;;;19.70;82.90;;;;;;10122442;28;20031;-52
2021/06/21 22:29:57;;;;;;;2.80;1.40;;;19.70;82.60;;;;;;10126021;28;20033;-57
2021/06/21 22:34:49;;;;;;;2.88;2.05;;;19.70;83.10;;;;;;10123817;28;20023;-56
2021/06/21 22:39:40;;;;;;;3.45;0.90;;;19.80;82.60;;;;;;10126076;28;20491;-57
2021/06/21 22:44:32;;;;;;;1.23;0.55;;;19.70;82.50;;;;;;10125456;28;20016;-59
2021/06/21 22:49:29;;;;;;;0.80;0.80;;;19.80;82.40;;;;;;10123924;28;20557;-55
2021/06/21 22:54:20;;;;;;;0.63;0.57;;;19.90;82.30;;;;;;10125360;28;20028;-61
2021/06/21 22:59:11;;;;;;;2.70;1.23;;;19.70;82.30;;;;;;10124128;28;20394;-60
